sensor_id;sensor_type;location;lat;lon;timestamp;P1;durP1;ratioP1;P2;durP2;ratioP2
20619;SDS011;10469;42.720;23.252;2022-07-25T00:02:15;13.77;;;9.23;;
20619;SDS011;10469;42.720;23.252;2022-07-25T00:04:41;11.27;;;9.20;;
20619;SDS011;10469;42.720;23.252;2022-07-25T00:07:07;16.05;;;9.25;;
20619;SDS011;10469;42.720;23.252;2022-07-25T00:09:32;11.95;;;9.73;;
20619;SDS011;10469;42.720;23.252;2022-07-25T00:11:58;22.73;;;9.73;;
20619;SDS011;10469;42.720;23.252;2022-07-25T00:14:24;13.82;;;9.57;;
20619;SDS011;10469;42.720;23.252;2022-07-25T00:16:49;15.13;;;9.48;;
20619;SDS011;10469;42.720;23.252;2022-07-25T00:19:15;11.10;;;9.70;;
20619;SDS011;10469;42.720;23.252;2022-07-25T00:21:40;16.60;;;9.73;;
20619;SDS011;10469;42.720;23.252;2022-07-25T00:24:06;16.15;;;9.88;;
20619;SDS011;10469;42.720;23.252;2022-07-25T00:26:31;13.63;;;10.10;;
20619;SDS011;10469;42.720;23.252;2022-07-25T00:28:57;12.15;;;9.38;;
20619;SDS011;10469;42.720;23.252;2022-07-25T00:31:22;14.18;;;10.13;;
20619;SDS011;10469;42.720;23.252;2022-07-25T00:33:48;15.27;;;10.50;;
20619;SDS011;10469;42.720;23.252;2022-07-25T00:36:13;15.95;;;10.23;;
20619;SDS011;10469;42.720;23.252;2022-07-25T00:38:39;13.25;;;10.63;;
20619;SDS011;10469;42.720;23.252;2022-07-25T00:41:04;15.45;;;10.63;;
20619;SDS011;10469;42.720;23.252;2022-07-25T00:43:30;11.43;;;10.23;;
20619;SDS011;10469;42.720;23.252;2022-07-25T00:45:56;11.15;;;10.05;;
20619;SDS011;10469;42.720;23.252;2022-07-25T00:48:22;13.38;;;9.93;;
20619;SDS011;10469;42.720;23.252;2022-07-25T00:50:48;11.73;;;9.82;;
20619;SDS011;10469;42.720;23.252;2022-07-25T00:53:15;15.10;;;9.98;;
20619;SDS011;10469;42.720;23.252;2022-07-25T00:55:41;11.55;;;10.05;;
20619;SDS011;10469;42.720;23.252;2022-07-25T00:58:06;18.73;;;11.90;;
20619;SDS011;10469;42.720;23.252;2022-07-25T01:00:32;16.25;;;12.75;;
20619;SDS011;10469;42.720;23.252;2022-07-25T01:02:57;16.10;;;11.55;;
20619;SDS011;10469;42.720;23.252;2022-07-25T01:05:23;16.55;;;10.82;;
20619;SDS011;10469;42.720;23.252;2022-07-25T01:07:48;14.23;;;10.57;;
20619;SDS011;10469;42.720;23.252;2022-07-25T01:10:15;13.75;;;10.07;;
20619;SDS011;10469;42.720;23.252;2022-07-25T01:12:48;15.55;;;10.25;;
20619;SDS011;10469;42.720;23.252;2022-07-25T01:15:16;13.50;;;10.20;;
20619;SDS011;10469;42.720;23.252;2022-07-25T01:17:43;16.77;;;10.93;;
20619;SDS011;10469;42.720;23.252;2022-07-25T01:20:12;13.20;;;10.40;;
20619;SDS011;10469;42.720;23.252;2022-07-25T01:22:44;12.88;;;10.75;;
20619;SDS011;10469;42.720;23.252;2022-07-25T01:25:11;15.07;;;10.25;;
20619;SDS011;10469;42.720;23.252;2022-07-25T01:27:38;13.75;;;10.52;;
20619;SDS011;10469;42.720;23.252;2022-07-25T01:30:05;14.43;;;10.35;;
20619;SDS011;10469;42.720;23.252;2022-07-25T01:32:33;12.90;;;10.00;;
20619;SDS011;10469;42.720;23.252;2022-07-25T01:34:59;18.17;;;11.32;;
20619;SDS011;10469;42.720;23.252;2022-07-25T01:37:25;13.82;;;10.55;;
20619;SDS011;10469;42.720;23.252;2022-07-25T01:39:50;14.43;;;10.43;;
20619;SDS011;10469;42.720;23.252;2022-07-25T01:42:16;12.75;;;10.38;;
20619;SDS011;10469;42.720;23.252;2022-07-25T01:44:41;12.07;;;10.10;;
20619;SDS011;10469;42.720;23.252;2022-07-25T01:47:07;14.40;;;10.38;;
20619;SDS011;10469;42.720;23.252;2022-07-25T01:49:32;16.67;;;11.00;;
20619;SDS011;10469;42.720;23.252;2022-07-25T01:51:57;12.48;;;10.77;;
20619;SDS011;10469;42.720;23.252;2022-07-25T01:54:23;16.27;;;11.02;;
20619;SDS011;10469;42.720;23.252;2022-07-25T01:56:48;15.23;;;10.75;;
20619;SDS011;10469;42.720;23.252;2022-07-25T01:59:14;16.50;;;10.70;;
20619;SDS011;10469;42.720;23.252;2022-07-25T02:01:39;15.50;;;10.93;;
20619;SDS011;10469;42.720;23.252;2022-07-25T02:04:05;16.50;;;11.02;;
20619;SDS011;10469;42.720;23.252;2022-07-25T02:06:30;14.48;;;10.43;;
20619;SDS011;10469;42.720;23.252;2022-07-25T02:08:58;14.93;;;10.40;;
20619;SDS011;10469;42.720;23.252;2022-07-25T02:11:23;11.77;;;10.68;;
20619;SDS011;10469;42.720;23.252;2022-07-25T02:13:49;18.30;;;10.73;;
20619;SDS011;10469;42.720;23.252;2022-07-25T02:16:14;19.05;;;10.68;;
20619;SDS011;10469;42.720;23.252;2022-07-25T02:18:39;12.27;;;10.68;;
20619;SDS011;10469;42.720;23.252;2022-07-25T02:21:05;15.80;;;10.73;;
20619;SDS011;10469;42.720;23.252;2022-07-25T02:23:32;16.00;;;10.63;;
20619;SDS011;10469;42.720;23.252;2022-07-25T02:25:58;13.18;;;10.48;;
20619;SDS011;10469;42.720;23.252;2022-07-25T02:28:23;11.90;;;10.65;;
20619;SDS011;10469;42.720;23.252;2022-07-25T02:30:49;18.30;;;10.65;;
20619;SDS011;10469;42.720;23.252;2022-07-25T02:33:14;12.40;;;10.20;;
20619;SDS011;10469;42.720;23.252;2022-07-25T02:35:40;13.25;;;10.63;;
20619;SDS011;10469;42.720;23.252;2022-07-25T02:38:05;13.25;;;10.23;;
20619;SDS011;10469;42.720;23.252;2022-07-25T02:40:31;11.65;;;10.52;;
20619;SDS011;10469;42.720;23.252;2022-07-25T02:42:56;15.65;;;10.15;;
20619;SDS011;10469;42.720;23.252;2022-07-25T02:45:21;11.02;;;9.93;;
20619;SDS011;10469;42.720;23.252;2022-07-25T02:47:47;12.45;;;10.38;;
20619;SDS011;10469;42.720;23.252;2022-07-25T02:50:12;16.38;;;10.02;;
20619;SDS011;10469;42.720;23.252;2022-07-25T02:52:38;14.45;;;10.77;;
20619;SDS011;10469;42.720;23.252;2022-07-25T02:55:04;12.25;;;10.35;;
20619;SDS011;10469;42.720;23.252;2022-07-25T02:57:29;15.13;;;10.45;;
20619;SDS011;10469;42.720;23.252;2022-07-25T02:59:55;12.80;;;10.20;;
20619;SDS011;10469;42.720;23.252;2022-07-25T03:02:20;12.32;;;10.02;;
20619;SDS011;10469;42.720;23.252;2022-07-25T03:04:46;10.80;;;9.63;;
20619;SDS011;10469;42.720;23.252;2022-07-25T03:07:11;14.98;;;10.15;;
20619;SDS011;10469;42.720;23.252;2022-07-25T03:09:37;12.57;;;9.75;;
20619;SDS011;10469;42.720;23.252;2022-07-25T03:12:02;12.18;;;10.38;;
20619;SDS011;10469;42.720;23.252;2022-07-25T03:14:28;15.18;;;9.65;;
20619;SDS011;10469;42.720;23.252;2022-07-25T03:16:53;15.27;;;11.27;;
20619;SDS011;10469;42.720;23.252;2022-07-25T03:19:19;15.70;;;9.98;;
20619;SDS011;10469;42.720;23.252;2022-07-25T03:21:44;15.75;;;10.50;;
20619;SDS011;10469;42.720;23.252;2022-07-25T03:24:10;18.50;;;10.80;;
20619;SDS011;10469;42.720;23.252;2022-07-25T03:26:36;12.60;;;10.32;;
20619;SDS011;10469;42.720;23.252;2022-07-25T03:29:01;14.70;;;10.77;;
20619;SDS011;10469;42.720;23.252;2022-07-25T03:31:27;12.05;;;10.52;;
20619;SDS011;10469;42.720;23.252;2022-07-25T03:33:52;15.18;;;11.02;;
20619;SDS011;10469;42.720;23.252;2022-07-25T03:36:18;11.73;;;10.43;;
20619;SDS011;10469;42.720;23.252;2022-07-25T03:38:43;12.60;;;10.40;;
20619;SDS011;10469;42.720;23.252;2022-07-25T03:41:09;13.88;;;10.32;;
20619;SDS011;10469;42.720;23.252;2022-07-25T03:43:34;14.25;;;10.93;;
20619;SDS011;10469;42.720;23.252;2022-07-25T03:46:00;13.35;;;10.63;;
20619;SDS011;10469;42.720;23.252;2022-07-25T03:48:25;14.40;;;9.93;;
20619;SDS011;10469;42.720;23.252;2022-07-25T03:50:51;14.15;;;10.38;;
20619;SDS011;10469;42.720;23.252;2022-07-25T03:53:16;11.35;;;9.95;;
20619;SDS011;10469;42.720;23.252;2022-07-25T03:55:41;13.43;;;10.07;;
20619;SDS011;10469;42.720;23.252;2022-07-25T03:58:07;15.65;;;9.75;;
20619;SDS011;10469;42.720;23.252;2022-07-25T04:00:32;13.93;;;9.98;;
20619;SDS011;10469;42.720;23.252;2022-07-25T04:02:58;10.77;;;9.40;;
20619;SDS011;10469;42.720;23.252;2022-07-25T04:05:23;10.95;;;9.10;;
20619;SDS011;10469;42.720;23.252;2022-07-25T04:24:29;12.40;;;9.23;;
20619;SDS011;10469;42.720;23.252;2022-07-25T04:26:55;11.65;;;8.55;;
20619;SDS011;10469;42.720;23.252;2022-07-25T04:29:20;15.27;;;8.90;;
20619;SDS011;10469;42.720;23.252;2022-07-25T04:31:45;11.18;;;8.60;;
20619;SDS011;10469;42.720;23.252;2022-07-25T04:34:11;14.20;;;9.10;;
20619;SDS011;10469;42.720;23.252;2022-07-25T04:36:36;16.35;;;9.10;;
20619;SDS011;10469;42.720;23.252;2022-07-25T04:39:02;11.25;;;8.80;;
20619;SDS011;10469;42.720;23.252;2022-07-25T04:41:28;16.73;;;9.32;;
20619;SDS011;10469;42.720;23.252;2022-07-25T04:43:53;13.05;;;8.20;;
20619;SDS011;10469;42.720;23.252;2022-07-25T04:46:19;10.50;;;8.80;;
20619;SDS011;10469;42.720;23.252;2022-07-25T04:48:45;20.48;;;9.07;;
20619;SDS011;10469;42.720;23.252;2022-07-25T04:51:11;10.55;;;8.10;;
20619;SDS011;10469;42.720;23.252;2022-07-25T04:53:37;10.88;;;8.40;;
20619;SDS011;10469;42.720;23.252;2022-07-25T04:56:02;12.60;;;8.50;;
20619;SDS011;10469;42.720;23.252;2022-07-25T04:58:30;12.18;;;8.65;;
20619;SDS011;10469;42.720;23.252;2022-07-25T05:00:55;14.82;;;9.02;;
20619;SDS011;10469;42.720;23.252;2022-07-25T05:03:22;20.35;;;9.65;;
20619;SDS011;10469;42.720;23.252;2022-07-25T05:05:47;13.15;;;8.27;;
20619;SDS011;10469;42.720;23.252;2022-07-25T05:08:13;10.48;;;7.85;;
20619;SDS011;10469;42.720;23.252;2022-07-25T05:10:38;14.82;;;9.38;;
20619;SDS011;10469;42.720;23.252;2022-07-25T05:13:04;10.23;;;8.98;;
20619;SDS011;10469;42.720;23.252;2022-07-25T05:15:29;15.00;;;8.35;;
20619;SDS011;10469;42.720;23.252;2022-07-25T05:17:54;10.80;;;8.05;;
20619;SDS011;10469;42.720;23.252;2022-07-25T05:20:20;12.60;;;8.35;;
20619;SDS011;10469;42.720;23.252;2022-07-25T05:22:45;15.93;;;8.80;;
20619;SDS011;10469;42.720;23.252;2022-07-25T05:25:11;9.00;;;8.10;;
20619;SDS011;10469;42.720;23.252;2022-07-25T05:27:37;11.55;;;7.90;;
20619;SDS011;10469;42.720;23.252;2022-07-25T05:30:03;9.65;;;7.40;;
20619;SDS011;10469;42.720;23.252;2022-07-25T05:32:30;9.20;;;7.30;;
20619;SDS011;10469;42.720;23.252;2022-07-25T05:34:56;11.85;;;8.02;;
20619;SDS011;10469;42.720;23.252;2022-07-25T05:37:21;7.88;;;7.07;;
20619;SDS011;10469;42.720;23.252;2022-07-25T05:39:47;10.65;;;7.00;;
20619;SDS011;10469;42.720;23.252;2022-07-25T05:42:12;8.55;;;6.60;;
20619;SDS011;10469;42.720;23.252;2022-07-25T05:44:38;9.85;;;7.60;;
20619;SDS011;10469;42.720;23.252;2022-07-25T05:47:07;7.47;;;6.68;;
20619;SDS011;10469;42.720;23.252;2022-07-25T05:49:33;11.48;;;6.97;;
20619;SDS011;10469;42.720;23.252;2022-07-25T05:51:58;10.88;;;7.65;;
20619;SDS011;10469;42.720;23.252;2022-07-25T05:54:24;12.52;;;7.55;;
20619;SDS011;10469;42.720;23.252;2022-07-25T05:56:49;8.43;;;7.35;;
20619;SDS011;10469;42.720;23.252;2022-07-25T05:59:15;8.77;;;7.88;;
20619;SDS011;10469;42.720;23.252;2022-07-25T06:01:40;11.63;;;7.85;;
20619;SDS011;10469;42.720;23.252;2022-07-25T06:04:05;15.65;;;8.07;;
20619;SDS011;10469;42.720;23.252;2022-07-25T06:06:31;11.20;;;7.70;;
20619;SDS011;10469;42.720;23.252;2022-07-25T06:08:56;13.52;;;7.47;;
20619;SDS011;10469;42.720;23.252;2022-07-25T06:11:22;8.60;;;7.15;;
20619;SDS011;10469;42.720;23.252;2022-07-25T06:13:50;13.25;;;7.35;;
20619;SDS011;10469;42.720;23.252;2022-07-25T06:16:16;16.13;;;7.07;;
20619;SDS011;10469;42.720;23.252;2022-07-25T06:18:41;12.05;;;8.13;;
20619;SDS011;10469;42.720;23.252;2022-07-25T06:21:07;11.30;;;7.53;;
20619;SDS011;10469;42.720;23.252;2022-07-25T06:23:32;11.75;;;7.35;;
20619;SDS011;10469;42.720;23.252;2022-07-25T06:25:57;10.52;;;7.72;;
20619;SDS011;10469;42.720;23.252;2022-07-25T06:28:23;10.35;;;7.28;;
20619;SDS011;10469;42.720;23.252;2022-07-25T06:30:48;9.98;;;6.82;;
20619;SDS011;10469;42.720;23.252;2022-07-25T06:33:14;7.82;;;7.07;;
20619;SDS011;10469;42.720;23.252;2022-07-25T06:35:39;10.82;;;7.68;;
20619;SDS011;10469;42.720;23.252;2022-07-25T06:38:04;13.40;;;7.15;;
20619;SDS011;10469;42.720;23.252;2022-07-25T06:40:30;8.75;;;7.22;;
20619;SDS011;10469;42.720;23.252;2022-07-25T06:42:55;9.07;;;7.65;;
20619;SDS011;10469;42.720;23.252;2022-07-25T06:45:21;11.23;;;7.43;;
20619;SDS011;10469;42.720;23.252;2022-07-25T06:47:47;8.63;;;7.15;;
20619;SDS011;10469;42.720;23.252;2022-07-25T06:50:14;9.02;;;7.55;;
20619;SDS011;10469;42.720;23.252;2022-07-25T06:52:42;10.32;;;7.68;;
20619;SDS011;10469;42.720;23.252;2022-07-25T06:55:08;8.75;;;7.18;;
20619;SDS011;10469;42.720;23.252;2022-07-25T06:57:35;8.30;;;7.03;;
20619;SDS011;10469;42.720;23.252;2022-07-25T07:00:02;7.45;;;6.60;;
20619;SDS011;10469;42.720;23.252;2022-07-25T07:02:32;11.48;;;6.75;;
20619;SDS011;10469;42.720;23.252;2022-07-25T07:04:57;8.90;;;6.93;;
20619;SDS011;10469;42.720;23.252;2022-07-25T07:07:23;9.27;;;7.53;;
20619;SDS011;10469;42.720;23.252;2022-07-25T07:09:48;8.40;;;7.60;;
20619;SDS011;10469;42.720;23.252;2022-07-25T07:12:14;13.35;;;7.63;;
20619;SDS011;10469;42.720;23.252;2022-07-25T07:14:39;11.75;;;7.43;;
20619;SDS011;10469;42.720;23.252;2022-07-25T07:17:07;9.80;;;6.97;;
20619;SDS011;10469;42.720;23.252;2022-07-25T07:19:33;12.48;;;7.30;;
20619;SDS011;10469;42.720;23.252;2022-07-25T07:21:58;11.18;;;7.40;;
20619;SDS011;10469;42.720;23.252;2022-07-25T07:24:23;10.45;;;7.43;;
20619;SDS011;10469;42.720;23.252;2022-07-25T07:26:49;8.40;;;7.10;;
20619;SDS011;10469;42.720;23.252;2022-07-25T07:29:14;7.90;;;7.20;;
20619;SDS011;10469;42.720;23.252;2022-07-25T07:31:40;8.10;;;6.85;;
20619;SDS011;10469;42.720;23.252;2022-07-25T07:34:05;9.35;;;7.47;;
20619;SDS011;10469;42.720;23.252;2022-07-25T07:36:31;18.00;;;7.45;;
20619;SDS011;10469;42.720;23.252;2022-07-25T07:38:56;9.80;;;6.57;;
20619;SDS011;10469;42.720;23.252;2022-07-25T07:41:22;12.25;;;7.47;;
20619;SDS011;10469;42.720;23.252;2022-07-25T07:43:47;8.55;;;7.68;;
20619;SDS011;10469;42.720;23.252;2022-07-25T07:46:13;11.52;;;8.02;;
20619;SDS011;10469;42.720;23.252;2022-07-25T07:48:39;11.80;;;7.10;;
20619;SDS011;10469;42.720;23.252;2022-07-25T07:51:04;8.40;;;7.57;;
20619;SDS011;10469;42.720;23.252;2022-07-25T07:53:30;11.35;;;7.28;;
20619;SDS011;10469;42.720;23.252;2022-07-25T07:56:14;7.80;;;7.00;;
20619;SDS011;10469;42.720;23.252;2022-07-25T07:58:40;12.73;;;6.50;;
20619;SDS011;10469;42.720;23.252;2022-07-25T08:01:06;8.35;;;6.70;;
20619;SDS011;10469;42.720;23.252;2022-07-25T08:03:31;9.02;;;7.05;;
20619;SDS011;10469;42.720;23.252;2022-07-25T08:05:57;11.25;;;7.88;;
20619;SDS011;10469;42.720;23.252;2022-07-25T08:08:23;12.10;;;7.40;;
20619;SDS011;10469;42.720;23.252;2022-07-25T08:10:48;10.30;;;6.75;;
20619;SDS011;10469;42.720;23.252;2022-07-25T08:15:53;10.65;;;6.93;;
20619;SDS011;10469;42.720;23.252;2022-07-25T08:18:23;7.82;;;7.03;;
20619;SDS011;10469;42.720;23.252;2022-07-25T08:20:50;8.32;;;6.70;;
20619;SDS011;10469;42.720;23.252;2022-07-25T08:23:16;9.90;;;6.68;;
20619;SDS011;10469;42.720;23.252;2022-07-25T08:25:42;8.77;;;6.68;;
20619;SDS011;10469;42.720;23.252;2022-07-25T08:28:09;10.60;;;7.03;;
20619;SDS011;10469;42.720;23.252;2022-07-25T08:30:35;7.50;;;6.63;;
20619;SDS011;10469;42.720;23.252;2022-07-25T08:33:02;9.98;;;6.25;;
20619;SDS011;10469;42.720;23.252;2022-07-25T08:37:59;9.13;;;6.80;;
20619;SDS011;10469;42.720;23.252;2022-07-25T08:40:26;11.82;;;7.28;;
20619;SDS011;10469;42.720;23.252;2022-07-25T08:42:53;10.10;;;7.00;;
20619;SDS011;10469;42.720;23.252;2022-07-25T08:45:20;12.52;;;6.85;;
20619;SDS011;10469;42.720;23.252;2022-07-25T08:47:47;10.95;;;6.63;;
20619;SDS011;10469;42.720;23.252;2022-07-25T08:50:18;10.98;;;6.68;;
20619;SDS011;10469;42.720;23.252;2022-07-25T08:52:46;11.68;;;6.82;;
20619;SDS011;10469;42.720;23.252;2022-07-25T08:55:13;14.48;;;6.78;;
20619;SDS011;10469;42.720;23.252;2022-07-25T08:57:41;8.32;;;6.65;;
20619;SDS011;10469;42.720;23.252;2022-07-25T09:00:08;11.35;;;6.90;;
20619;SDS011;10469;42.720;23.252;2022-07-25T09:02:36;14.00;;;7.00;;
20619;SDS011;10469;42.720;23.252;2022-07-25T09:05:02;7.85;;;7.05;;
20619;SDS011;10469;42.720;23.252;2022-07-25T09:07:29;7.85;;;6.72;;
20619;SDS011;10469;42.720;23.252;2022-07-25T09:12:37;7.00;;;6.28;;
20619;SDS011;10469;42.720;23.252;2022-07-25T09:15:02;8.75;;;6.78;;
20619;SDS011;10469;42.720;23.252;2022-07-25T09:17:28;10.70;;;6.57;;
20619;SDS011;10469;42.720;23.252;2022-07-25T09:19:54;9.18;;;7.20;;
20619;SDS011;10469;42.720;23.252;2022-07-25T09:22:21;9.20;;;6.28;;
20619;SDS011;10469;42.720;23.252;2022-07-25T09:24:47;10.02;;;6.32;;
20619;SDS011;10469;42.720;23.252;2022-07-25T09:27:12;10.60;;;6.63;;
20619;SDS011;10469;42.720;23.252;2022-07-25T09:29:39;9.45;;;7.32;;
20619;SDS011;10469;42.720;23.252;2022-07-25T09:32:12;10.05;;;6.55;;
20619;SDS011;10469;42.720;23.252;2022-07-25T09:34:46;7.93;;;5.88;;
20619;SDS011;10469;42.720;23.252;2022-07-25T09:37:14;11.93;;;6.40;;
20619;SDS011;10469;42.720;23.252;2022-07-25T09:39:43;7.15;;;6.35;;
20619;SDS011;10469;42.720;23.252;2022-07-25T09:42:20;6.90;;;6.20;;
20619;SDS011;10469;42.720;23.252;2022-07-25T09:45:06;11.70;;;6.18;;
20619;SDS011;10469;42.720;23.252;2022-07-25T09:47:47;7.97;;;6.18;;
20619;SDS011;10469;42.720;23.252;2022-07-25T09:50:19;11.75;;;6.80;;
20619;SDS011;10469;42.720;23.252;2022-07-25T09:52:45;8.60;;;6.85;;
20619;SDS011;10469;42.720;23.252;2022-07-25T09:55:11;7.18;;;6.47;;
20619;SDS011;10469;42.720;23.252;2022-07-25T09:57:38;8.82;;;6.40;;
20619;SDS011;10469;42.720;23.252;2022-07-25T10:00:05;7.28;;;6.55;;
20619;SDS011;10469;42.720;23.252;2022-07-25T10:05:13;6.45;;;5.85;;
20619;SDS011;10469;42.720;23.252;2022-07-25T10:07:59;7.68;;;6.45;;
20619;SDS011;10469;42.720;23.252;2022-07-25T10:10:35;6.45;;;5.85;;
20619;SDS011;10469;42.720;23.252;2022-07-25T10:13:13;7.28;;;6.05;;
20619;SDS011;10469;42.720;23.252;2022-07-25T10:15:48;8.95;;;6.13;;
20619;SDS011;10469;42.720;23.252;2022-07-25T10:18:17;11.68;;;6.50;;
20619;SDS011;10469;42.720;23.252;2022-07-25T10:20:45;7.72;;;6.65;;
20619;SDS011;10469;42.720;23.252;2022-07-25T10:39:35;6.03;;;5.43;;
20619;SDS011;10469;42.720;23.252;2022-07-25T10:42:03;8.57;;;5.85;;
20619;SDS011;10469;42.720;23.252;2022-07-25T10:44:42;7.68;;;5.95;;
20619;SDS011;10469;42.720;23.252;2022-07-25T10:47:09;6.07;;;5.47;;
20619;SDS011;10469;42.720;23.252;2022-07-25T10:49:40;12.15;;;5.50;;
20619;SDS011;10469;42.720;23.252;2022-07-25T10:52:13;11.38;;;5.82;;
20619;SDS011;10469;42.720;23.252;2022-07-25T10:54:40;9.20;;;5.80;;
20619;SDS011;10469;42.720;23.252;2022-07-25T10:57:06;9.48;;;5.60;;
20619;SDS011;10469;42.720;23.252;2022-07-25T10:59:39;7.40;;;5.75;;
20619;SDS011;10469;42.720;23.252;2022-07-25T11:02:08;7.43;;;5.40;;
20619;SDS011;10469;42.720;23.252;2022-07-25T11:04:40;6.35;;;5.50;;
20619;SDS011;10469;42.720;23.252;2022-07-25T11:07:08;6.45;;;5.82;;
20619;SDS011;10469;42.720;23.252;2022-07-25T11:09:38;7.53;;;5.70;;
20619;SDS011;10469;42.720;23.252;2022-07-25T11:12:05;6.75;;;5.45;;
20619;SDS011;10469;42.720;23.252;2022-07-25T11:14:38;6.13;;;5.45;;
20619;SDS011;10469;42.720;23.252;2022-07-25T11:17:28;11.85;;;6.00;;
20619;SDS011;10469;42.720;23.252;2022-07-25T11:22:19;7.78;;;6.20;;
20619;SDS011;10469;42.720;23.252;2022-07-25T11:24:45;11.30;;;5.93;;
20619;SDS011;10469;42.720;23.252;2022-07-25T11:27:12;7.18;;;5.82;;
20619;SDS011;10469;42.720;23.252;2022-07-25T11:29:44;6.30;;;5.50;;
20619;SDS011;10469;42.720;23.252;2022-07-25T11:32:10;7.03;;;5.40;;
20619;SDS011;10469;42.720;23.252;2022-07-25T11:34:51;5.85;;;5.25;;
20619;SDS011;10469;42.720;23.252;2022-07-25T11:37:18;6.22;;;5.53;;
20619;SDS011;10469;42.720;23.252;2022-07-25T11:39:45;8.27;;;5.40;;
20619;SDS011;10469;42.720;23.252;2022-07-25T11:42:18;7.70;;;6.03;;
20619;SDS011;10469;42.720;23.252;2022-07-25T11:44:48;9.95;;;6.32;;
20619;SDS011;10469;42.720;23.252;2022-07-25T11:47:26;6.70;;;6.10;;
20619;SDS011;10469;42.720;23.252;2022-07-25T11:49:54;6.88;;;6.05;;
20619;SDS011;10469;42.720;23.252;2022-07-25T11:54:58;9.32;;;6.03;;
20619;SDS011;10469;42.720;23.252;2022-07-25T11:57:26;8.05;;;5.93;;
20619;SDS011;10469;42.720;23.252;2022-07-25T11:59:53;9.70;;;6.28;;
20619;SDS011;10469;42.720;23.252;2022-07-25T12:02:23;10.13;;;6.25;;
20619;SDS011;10469;42.720;23.252;2022-07-25T12:04:57;6.72;;;5.95;;
20619;SDS011;10469;42.720;23.252;2022-07-25T12:07:38;10.38;;;6.30;;
20619;SDS011;10469;42.720;23.252;2022-07-25T12:10:10;8.65;;;6.03;;
20619;SDS011;10469;42.720;23.252;2022-07-25T12:15:07;8.13;;;6.18;;
20619;SDS011;10469;42.720;23.252;2022-07-25T12:17:35;6.82;;;6.15;;
20619;SDS011;10469;42.720;23.252;2022-07-25T12:20:02;11.52;;;5.63;;
20619;SDS011;10469;42.720;23.252;2022-07-25T12:22:28;8.55;;;5.90;;
20619;SDS011;10469;42.720;23.252;2022-07-25T12:24:53;7.80;;;6.10;;
20619;SDS011;10469;42.720;23.252;2022-07-25T12:27:18;8.48;;;6.47;;
20619;SDS011;10469;42.720;23.252;2022-07-25T12:29:44;7.28;;;6.22;;
20619;SDS011;10469;42.720;23.252;2022-07-25T12:32:09;6.78;;;6.15;;
20619;SDS011;10469;42.720;23.252;2022-07-25T12:34:35;10.48;;;6.28;;
20619;SDS011;10469;42.720;23.252;2022-07-25T12:37:00;10.30;;;6.65;;
20619;SDS011;10469;42.720;23.252;2022-07-25T12:39:25;11.02;;;6.20;;
20619;SDS011;10469;42.720;23.252;2022-07-25T12:41:51;8.90;;;6.38;;
20619;SDS011;10469;42.720;23.252;2022-07-25T12:44:16;8.77;;;6.00;;
20619;SDS011;10469;42.720;23.252;2022-07-25T12:46:42;11.18;;;6.07;;
20619;SDS011;10469;42.720;23.252;2022-07-25T12:49:07;9.50;;;5.90;;
20619;SDS011;10469;42.720;23.252;2022-07-25T12:51:33;8.10;;;6.55;;
20619;SDS011;10469;42.720;23.252;2022-07-25T12:53:58;9.48;;;6.50;;
20619;SDS011;10469;42.720;23.252;2022-07-25T12:56:24;6.60;;;6.00;;
20619;SDS011;10469;42.720;23.252;2022-07-25T12:58:49;8.63;;;6.10;;
20619;SDS011;10469;42.720;23.252;2022-07-25T13:01:15;6.50;;;5.90;;
20619;SDS011;10469;42.720;23.252;2022-07-25T13:03:40;7.50;;;6.38;;
20619;SDS011;10469;42.720;23.252;2022-07-25T13:06:06;6.40;;;5.70;;
20619;SDS011;10469;42.720;23.252;2022-07-25T13:08:31;8.20;;;5.88;;
20619;SDS011;10469;42.720;23.252;2022-07-25T13:10:57;7.68;;;5.95;;
20619;SDS011;10469;42.720;23.252;2022-07-25T13:13:22;7.47;;;6.68;;
20619;SDS011;10469;42.720;23.252;2022-07-25T13:15:49;6.88;;;6.18;;
20619;SDS011;10469;42.720;23.252;2022-07-25T13:18:14;6.93;;;6.20;;
20619;SDS011;10469;42.720;23.252;2022-07-25T13:20:40;6.60;;;6.00;;
20619;SDS011;10469;42.720;23.252;2022-07-25T13:23:05;9.30;;;5.97;;
20619;SDS011;10469;42.720;23.252;2022-07-25T13:25:31;8.20;;;6.18;;
20619;SDS011;10469;42.720;23.252;2022-07-25T13:27:57;9.70;;;5.93;;
20619;SDS011;10469;42.720;23.252;2022-07-25T13:30:23;11.32;;;6.20;;
20619;SDS011;10469;42.720;23.252;2022-07-25T13:32:48;10.30;;;6.20;;
20619;SDS011;10469;42.720;23.252;2022-07-25T13:35:14;8.15;;;5.78;;
20619;SDS011;10469;42.720;23.252;2022-07-25T13:37:39;10.10;;;6.05;;
20619;SDS011;10469;42.720;23.252;2022-07-25T13:40:05;8.60;;;6.10;;
20619;SDS011;10469;42.720;23.252;2022-07-25T13:42:31;8.48;;;7.25;;
20619;SDS011;10469;42.720;23.252;2022-07-25T13:44:56;6.65;;;6.05;;
20619;SDS011;10469;42.720;23.252;2022-07-25T13:47:22;8.05;;;5.90;;
20619;SDS011;10469;42.720;23.252;2022-07-25T13:49:50;9.23;;;6.10;;
20619;SDS011;10469;42.720;23.252;2022-07-25T13:52:16;7.28;;;6.57;;
20619;SDS011;10469;42.720;23.252;2022-07-25T13:54:42;6.75;;;6.07;;
20619;SDS011;10469;42.720;23.252;2022-07-25T13:57:07;6.78;;;6.07;;
20619;SDS011;10469;42.720;23.252;2022-07-25T13:59:33;9.93;;;6.47;;
20619;SDS011;10469;42.720;23.252;2022-07-25T14:01:59;8.75;;;6.05;;
20619;SDS011;10469;42.720;23.252;2022-07-25T14:04:24;6.63;;;5.93;;
20619;SDS011;10469;42.720;23.252;2022-07-25T14:06:50;8.82;;;6.28;;
20619;SDS011;10469;42.720;23.252;2022-07-25T14:09:16;6.20;;;5.60;;
20619;SDS011;10469;42.720;23.252;2022-07-25T14:11:43;7.85;;;5.93;;
20619;SDS011;10469;42.720;23.252;2022-07-25T14:14:09;7.05;;;6.25;;
20619;SDS011;10469;42.720;23.252;2022-07-25T14:16:34;10.80;;;5.75;;
20619;SDS011;10469;42.720;23.252;2022-07-25T14:19:00;7.20;;;5.68;;
20619;SDS011;10469;42.720;23.252;2022-07-25T14:21:26;6.40;;;5.80;;
20619;SDS011;10469;42.720;23.252;2022-07-25T14:23:51;6.95;;;5.70;;
20619;SDS011;10469;42.720;23.252;2022-07-25T14:26:17;5.95;;;5.35;;
20619;SDS011;10469;42.720;23.252;2022-07-25T14:28:43;8.82;;;6.20;;
20619;SDS011;10469;42.720;23.252;2022-07-25T14:31:09;7.97;;;5.53;;
20619;SDS011;10469;42.720;23.252;2022-07-25T14:33:35;5.70;;;5.05;;
20619;SDS011;10469;42.720;23.252;2022-07-25T14:36:04;6.93;;;5.35;;
20619;SDS011;10469;42.720;23.252;2022-07-25T14:38:33;6.30;;;5.40;;
20619;SDS011;10469;42.720;23.252;2022-07-25T14:40:59;6.30;;;5.60;;
20619;SDS011;10469;42.720;23.252;2022-07-25T14:43:25;6.28;;;5.30;;
20619;SDS011;10469;42.720;23.252;2022-07-25T14:45:50;6.90;;;6.10;;
20619;SDS011;10469;42.720;23.252;2022-07-25T14:48:16;6.70;;;5.93;;
20619;SDS011;10469;42.720;23.252;2022-07-25T14:50:41;6.20;;;5.38;;
20619;SDS011;10469;42.720;23.252;2022-07-25T14:53:07;6.28;;;5.70;;
20619;SDS011;10469;42.720;23.252;2022-07-25T14:55:32;9.40;;;5.70;;
20619;SDS011;10469;42.720;23.252;2022-07-25T14:57:58;6.15;;;5.47;;
20619;SDS011;10469;42.720;23.252;2022-07-25T15:00:26;6.68;;;6.05;;
20619;SDS011;10469;42.720;23.252;2022-07-25T15:02:53;6.90;;;5.70;;
20619;SDS011;10469;42.720;23.252;2022-07-25T15:05:18;7.50;;;5.47;;
20619;SDS011;10469;42.720;23.252;2022-07-25T15:07:44;6.88;;;6.20;;
20619;SDS011;10469;42.720;23.252;2022-07-25T15:10:09;8.68;;;5.50;;
20619;SDS011;10469;42.720;23.252;2022-07-25T15:12:35;6.40;;;5.50;;